Time;durP1;ratioP1;P1;durP2;ratioP2;P2;SDS_P1;SDS_P2;PMS_P1;PMS_P2;Temp;Humidity;BMP_temperature;BMP_pressure;BME280_temperature;BME280_humidity;BME280_pressure;Samples;Min_cycle;Max_cycle;Signal;HPM_P1;HPM_P2
2022/04/18 00:01:13;;;;;;;11.25;7.60;;;11.90;46.10;;;;;;5053965;28;20055;-46
2022/04/18 00:03:39;;;;;;;12.00;7.10;;;11.80;46.10;;;;;;5052687;28;20013;-31
2022/04/18 00:06:04;;;;;;;12.05;7.55;;;11.80;46.20;;;;;;5054144;28;20029;-30
2022/04/18 00:08:30;;;;;;;11.20;7.65;;;11.70;46.20;;;;;;5053856;28;20021;-31
2022/04/18 00:10:56;;;;;;;10.57;7.03;;;11.70;46.30;;;;;;5053877;28;20103;-32
2022/04/18 00:13:21;;;;;;;9.43;6.88;;;11.60;46.30;;;;;;5054001;28;20021;-32
2022/04/18 00:15:47;;;;;;;9.90;7.60;;;11.60;46.50;;;;;;5053824;28;20028;-30
2022/04/18 00:18:13;;;;;;;11.50;7.47;;;11.60;46.60;;;;;;5054001;28;20021;-31
2022/04/18 00:20:38;;;;;;;10.65;7.53;;;11.60;46.70;;;;;;5053578;28;20025;-32
2022/04/18 00:23:04;;;;;;;9.85;7.03;;;11.60;46.80;;;;;;5053569;28;20049;-35
2022/04/18 00:25:29;;;;;;;10.88;7.38;;;11.50;46.80;;;;;;5053627;28;20036;-32
2022/04/18 00:27:55;;;;;;;11.52;8.07;;;11.50;47.00;;;;;;5053624;28;20480;-34
2022/04/18 00:30:21;;;;;;;11.43;7.68;;;11.50;47.00;;;;;;5053733;28;20021;-31
2022/04/18 00:32:46;;;;;;;10.98;8.32;;;11.40;47.60;;;;;;5053703;28;20025;-33
2022/04/18 00:35:12;;;;;;;10.85;7.80;;;11.40;47.10;;;;;;5053366;28;20064;-30
2022/04/18 00:37:40;;;;;;;11.38;7.47;;;11.40;47.20;;;;;;5053244;28;20020;-31
2022/04/18 00:40:07;;;;;;;12.27;7.70;;;11.30;47.20;;;;;;5053301;28;20055;-32
2022/04/18 00:42:33;;;;;;;11.15;7.80;;;11.30;47.20;;;;;;5053178;28;20021;-29
2022/04/18 00:45:00;;;;;;;11.35;8.00;;;11.30;47.30;;;;;;5052966;28;20033;-29
2022/04/18 00:47:25;;;;;;;12.07;8.00;;;11.20;47.40;;;;;;5053289;28;20447;-31
2022/04/18 00:49:51;;;;;;;10.98;7.28;;;11.30;47.60;;;;;;5052960;28;20159;-31
2022/04/18 00:52:17;;;;;;;13.15;8.48;;;11.20;47.60;;;;;;5052805;28;20408;-35
2022/04/18 00:54:43;;;;;;;13.00;8.40;;;11.20;47.70;;;;;;5053082;28;20025;-30
2022/04/18 00:57:10;;;;;;;14.90;8.38;;;11.20;47.80;;;;;;5052644;28;20021;-32
2022/04/18 00:59:37;;;;;;;12.73;8.13;;;11.10;47.80;;;;;;5052870;28;20022;-32
2022/04/18 01:02:04;;;;;;;12.02;7.88;;;11.10;48.00;;;;;;5052545;28;20060;-30
2022/04/18 01:04:31;;;;;;;12.13;7.93;;;11.10;48.00;;;;;;5052522;28;20021;-31
2022/04/18 01:06:58;;;;;;;10.82;7.78;;;11.10;48.10;;;;;;5052548;28;20021;-30
2022/04/18 01:09:24;;;;;;;11.15;7.70;;;11.00;48.10;;;;;;5052393;28;20167;-32
2022/04/18 01:11:49;;;;;;;10.05;7.93;;;11.00;48.30;;;;;;5052550;28;20032;-31
2022/04/18 01:14:15;;;;;;;10.45;7.85;;;11.00;48.30;;;;;;5052128;28;20025;-30
2022/04/18 01:16:42;;;;;;;10.70;7.30;;;10.90;48.40;;;;;;5052073;28;20036;-31
2022/04/18 01:19:09;;;;;;;11.77;7.22;;;10.90;48.40;;;;;;5052679;28;20032;-30
2022/04/18 01:21:35;;;;;;;11.52;7.55;;;10.90;48.50;;;;;;5052093;28;20029;-30
2022/04/18 01:24:01;;;;;;;9.63;7.53;;;10.90;48.50;;;;;;5052072;28;20132;-30
2022/04/18 01:29:11;;;;;;;10.65;7.13;;;10.80;48.60;;;;;;5052359;28;20510;-29
2022/04/18 01:31:38;;;;;;;12.10;7.78;;;10.80;48.70;;;;;;5034084;28;20025;-29
2022/04/18 01:34:06;;;;;;;12.23;7.35;;;10.80;48.80;;;;;;5052389;28;20419;-29
2022/04/18 01:36:32;;;;;;;11.60;7.13;;;10.80;48.90;;;;;;5052238;28;20361;-32
2022/04/18 01:38:58;;;;;;;10.15;7.68;;;10.70;48.90;;;;;;5051981;28;20053;-34
2022/04/18 01:41:24;;;;;;;10.60;7.88;;;10.70;49.00;;;;;;5052185;28;20100;-34
2022/04/18 01:43:50;;;;;;;12.75;7.53;;;10.70;49.00;;;;;;5051950;28;20048;-30
2022/04/18 01:46:17;;;;;;;11.63;7.45;;;10.70;49.10;;;;;;5052050;28;20021;-30
2022/04/18 01:48:44;;;;;;;11.45;7.13;;;10.70;49.10;;;;;;5051915;28;20021;-32
2022/04/18 01:51:10;;;;;;;11.85;6.95;;;10.60;49.10;;;;;;5052162;28;20465;-30
2022/04/18 01:53:35;;;;;;;12.07;7.13;;;10.60;49.20;;;;;;5052038;28;20071;-34
2022/04/18 01:56:01;;;;;;;10.35;6.85;;;10.60;49.20;;;;;;5034019;28;20024;-46
2022/04/18 01:58:27;;;;;;;11.10;7.45;;;10.60;49.20;;;;;;5052126;28;20025;-46
2022/04/18 02:00:52;;;;;;;11.23;6.72;;;10.60;49.20;;;;;;5051918;28;20025;-45
2022/04/18 02:03:18;;;;;;;9.77;7.13;;;10.60;49.30;;;;;;5033912;28;20029;-45
2022/04/18 02:05:45;;;;;;;11.60;7.10;;;10.50;49.30;;;;;;5052218;28;20036;-45
2022/04/18 02:08:10;;;;;;;11.18;7.53;;;10.50;49.40;;;;;;5051973;28;20025;-45
2022/04/18 02:10:36;;;;;;;11.63;7.47;;;10.50;49.40;;;;;;5051770;28;20495;-29
2022/04/18 02:13:02;;;;;;;12.13;7.53;;;10.50;49.50;;;;;;5052057;28;20029;-29
2022/04/18 02:15:28;;;;;;;10.95;7.20;;;10.50;49.60;;;;;;5034097;28;20063;-35
2022/04/18 02:17:54;;;;;;;14.45;8.27;;;10.40;49.60;;;;;;5052087;28;20033;-31
2022/04/18 02:20:19;;;;;;;11.43;7.13;;;10.40;49.70;;;;;;5052089;28;20538;-31
2022/04/18 02:22:45;;;;;;;9.60;7.13;;;10.30;49.70;;;;;;5051848;28;20044;-30
2022/04/18 02:25:10;;;;;;;11.75;7.28;;;10.30;49.80;;;;;;5051883;28;20044;-29
2022/04/18 02:27:36;;;;;;;12.40;7.40;;;10.30;49.90;;;;;;5053984;28;20029;-30
2022/04/18 02:30:03;;;;;;;12.00;7.35;;;10.30;50.00;;;;;;5055784;28;20530;-36
2022/04/18 02:32:47;;;;;;;11.55;6.85;;;10.30;50.10;;;;;;5055672;28;20029;-30
2022/04/18 02:35:13;;;;;;;10.98;6.60;;;10.20;50.00;;;;;;5055848;28;20048;-35
2022/04/18 02:37:39;;;;;;;11.43;7.10;;;10.20;50.10;;;;;;5055374;28;20021;-32
2022/04/18 02:40:05;;;;;;;11.50;7.15;;;10.20;50.10;;;;;;5055383;28;20039;-30
2022/04/18 02:42:31;;;;;;;10.80;7.38;;;10.10;50.10;;;;;;5055278;28;20418;-30
2022/04/18 02:44:57;;;;;;;10.27;6.95;;;10.10;50.10;;;;;;5055259;28;20017;-34
2022/04/18 02:47:23;;;;;;;12.15;7.47;;;10.10;50.20;;;;;;5037138;28;20159;-33
2022/04/18 02:49:50;;;;;;;10.32;7.10;;;10.10;50.30;;;;;;5055544;28;20402;-32
2022/04/18 02:52:16;;;;;;;10.18;6.93;;;10.00;50.30;;;;;;5055106;28;20029;-29
2022/04/18 02:54:43;;;;;;;10.85;7.43;;;10.00;50.40;;;;;;5037179;28;20090;-31
2022/04/18 02:57:11;;;;;;;12.70;7.32;;;9.90;50.50;;;;;;5055328;28;20388;-29
2022/04/18 02:59:37;;;;;;;12.32;7.90;;;9.90;50.70;;;;;;5055039;28;20031;-38
2022/04/18 03:02:02;;;;;;;11.77;7.82;;;9.90;50.80;;;;;;5055020;28;20380;-31
2022/04/18 03:04:29;;;;;;;10.68;6.90;;;9.80;50.90;;;;;;5054940;28;20028;-30
2022/04/18 03:06:55;;;;;;;13.48;7.28;;;9.80;51.10;;;;;;5054949;28;20062;-31
2022/04/18 03:09:20;;;;;;;10.45;7.28;;;9.70;51.20;;;;;;5055052;28;20029;-33
2022/04/18 03:11:46;;;;;;;9.45;6.60;;;9.70;51.20;;;;;;5054853;28;20021;-30
2022/04/18 03:14:11;;;;;;;11.23;7.18;;;9.70;51.30;;;;;;5037000;28;20028;-30
2022/04/18 03:16:37;;;;;;;10.77;7.32;;;9.60;51.50;;;;;;5055050;28;20424;-31
2022/04/18 03:19:02;;;;;;;11.77;6.85;;;9.60;51.70;;;;;;5054939;28;20538;-30
2022/04/18 03:21:28;;;;;;;10.05;7.20;;;9.50;51.80;;;;;;5054824;28;20095;-29
2022/04/18 03:23:54;;;;;;;10.48;6.57;;;9.50;51.90;;;;;;5054848;28;20389;-35
2022/04/18 03:26:19;;;;;;;11.60;6.90;;;9.50;52.00;;;;;;5054043;28;20036;-37
2022/04/18 03:28:45;;;;;;;10.65;6.82;;;9.50;52.10;;;;;;5054857;28;20395;-30
2022/04/18 03:31:11;;;;;;;11.77;6.68;;;9.40;52.10;;;;;;5054772;28;20510;-29
2022/04/18 03:33:36;;;;;;;10.48;6.93;;;9.40;52.30;;;;;;5054653;28;20020;-29
2022/04/18 03:41:30;;;;;;;9.88;6.82;;;9.30;52.90;;;;;;5054606;28;20036;-29
2022/04/18 03:43:55;;;;;;;11.45;7.55;;;9.20;52.90;;;;;;5054315;28;20392;-30
2022/04/18 03:46:22;;;;;;;11.00;7.65;;;9.20;53.00;;;;;;5054170;28;20515;-33
2022/04/18 03:48:48;;;;;;;9.98;6.50;;;9.10;53.60;;;;;;5054772;28;20025;-42
2022/04/18 03:51:13;;;;;;;9.82;6.55;;;9.10;53.10;;;;;;5054311;28;20066;-28
2022/04/18 03:53:39;;;;;;;12.70;7.07;;;9.10;53.10;;;;;;5054316;28;20431;-36
2022/04/18 03:56:05;;;;;;;10.98;7.28;;;9.10;53.20;;;;;;5054265;28;20029;-30
2022/04/18 03:58:30;;;;;;;10.10;6.50;;;9.10;53.20;;;;;;5054538;28;20009;-33
2022/04/18 04:00:56;;;;;;;10.63;7.15;;;9.10;53.30;;;;;;5054395;28;20131;-31
2022/04/18 04:03:21;;;;;;;11.25;7.55;;;9.00;53.40;;;;;;5053847;28;20025;-35
2022/04/18 04:05:47;;;;;;;10.80;7.35;;;9.00;53.50;;;;;;5053810;28;20025;-29
2022/04/18 04:08:13;;;;;;;10.55;7.35;;;9.00;53.60;;;;;;5053986;28;20104;-33
2022/04/18 04:10:38;;;;;;;11.77;6.72;;;8.90;53.60;;;;;;5053764;28;20060;-31
2022/04/18 04:13:06;;;;;;;11.35;7.28;;;8.90;53.60;;;;;;5053673;28;20028;-40
2022/04/18 04:15:32;;;;;;;9.98;6.63;;;8.90;53.70;;;;;;5053789;28;20036;-31
2022/04/18 04:17:57;;;;;;;12.50;7.60;;;8.90;53.60;;;;;;5053640;28;20124;-32
2022/04/18 04:20:23;;;;;;;10.73;7.22;;;8.90;53.60;;;;;;5053436;28;20029;-30
2022/04/18 04:22:51;;;;;;;10.65;6.88;;;8.90;53.60;;;;;;5053412;28;20045;-31
2022/04/18 04:25:17;;;;;;;10.00;6.63;;;8.90;53.60;;;;;;5053411;28;20100;-34
2022/04/18 04:27:43;;;;;;;10.48;7.20;;;8.90;53.70;;;;;;5053338;28;20021;-29
2022/04/18 04:30:09;;;;;;;13.07;7.90;;;8.90;53.60;;;;;;5053769;28;20032;-31
2022/04/18 04:32:35;;;;;;;10.13;7.30;;;8.90;53.60;;;;;;5053299;28;20100;-35
2022/04/18 04:35:00;;;;;;;11.35;7.03;;;8.90;53.60;;;;;;5053265;28;20119;-30
2022/04/18 04:37:26;;;;;;;11.50;6.88;;;8.80;53.60;;;;;;5053183;28;20029;-30
2022/04/18 04:39:51;;;;;;;11.57;6.88;;;8.80;53.60;;;;;;5053145;28;20465;-28
2022/04/18 04:42:18;;;;;;;11.38;6.93;;;8.80;53.60;;;;;;5053586;28;20481;-37
2022/04/18 04:44:44;;;;;;;10.98;7.05;;;8.80;53.60;;;;;;5052983;28;20029;-34
2022/04/18 04:47:11;;;;;;;10.77;6.55;;;8.80;53.60;;;;;;5034959;28;20056;-29
2022/04/18 04:49:37;;;;;;;9.88;7.00;;;8.80;53.60;;;;;;5052586;28;20463;-31
2022/04/18 04:52:04;;;;;;;9.82;6.80;;;8.80;53.70;;;;;;5053067;28;20021;-32
2022/04/18 04:54:29;;;;;;;11.98;7.60;;;8.80;53.60;;;;;;5053303;28;20035;-33
2022/04/18 04:56:55;;;;;;;10.85;7.03;;;8.80;53.60;;;;;;5052845;28;20025;-31
2022/04/18 04:59:21;;;;;;;11.75;6.88;;;8.80;53.60;;;;;;5052770;28;20358;-32
2022/04/18 05:01:46;;;;;;;9.30;6.60;;;8.80;53.50;;;;;;5018334;28;20507;-31
2022/04/18 05:04:12;;;;;;;9.73;6.82;;;8.90;53.50;;;;;;5052986;28;20021;-35
2022/04/18 05:06:37;;;;;;;11.23;6.97;;;8.90;53.50;;;;;;5052700;28;20033;-29
2022/04/18 05:09:03;;;;;;;9.07;6.22;;;8.90;53.50;;;;;;5052820;28;20060;-29
2022/04/18 05:11:28;;;;;;;11.43;6.80;;;8.90;53.50;;;;;;5052702;28;20032;-29
2022/04/18 05:13:54;;;;;;;12.10;7.10;;;8.90;53.40;;;;;;5052537;28;20081;-33
2022/04/18 05:16:20;;;;;;;12.40;7.07;;;8.90;53.40;;;;;;5052566;28;20029;-30
2022/04/18 05:18:46;;;;;;;10.50;7.00;;;8.90;53.40;;;;;;5052556;28;20059;-31
2022/04/18 05:21:12;;;;;;;11.55;7.18;;;9.00;53.40;;;;;;5052493;28;20025;-33
2022/04/18 05:23:38;;;;;;;12.13;7.10;;;9.00;53.40;;;;;;5052447;28;20119;-33
2022/04/18 05:26:04;;;;;;;9.75;6.55;;;9.00;53.30;;;;;;5052742;28;20024;-30
2022/04/18 05:28:29;;;;;;;10.82;6.70;;;9.10;53.30;;;;;;5052404;28;20334;-35
2022/04/18 05:30:55;;;;;;;9.95;6.75;;;9.10;53.20;;;;;;5052444;28;20399;-32
2022/04/18 05:33:21;;;;;;;11.07;6.57;;;9.10;53.20;;;;;;5052363;28;20469;-30
2022/04/18 05:35:47;;;;;;;11.13;6.70;;;9.20;53.20;;;;;;5052669;28;20380;-30
2022/04/18 05:38:14;;;;;;;9.90;6.75;;;9.20;53.20;;;;;;5052588;28;20013;-32
2022/04/18 05:40:40;;;;;;;9.05;6.50;;;9.20;53.10;;;;;;5052364;28;20112;-31
2022/04/18 05:43:06;;;;;;;9.25;6.47;;;9.30;53.10;;;;;;5052075;28;20043;-35
2022/04/18 05:45:31;;;;;;;9.40;6.65;;;9.30;53.00;;;;;;5052282;28;20544;-34
2022/04/18 05:47:57;;;;;;;10.40;6.57;;;9.30;52.90;;;;;;5052259;28;20029;-31
2022/04/18 05:50:23;;;;;;;11.85;6.28;;;9.30;52.90;;;;;;5052075;28;20021;-31
2022/04/18 05:52:48;;;;;;;11.95;6.75;;;9.40;52.90;;;;;;5052193;28;20032;-32
2022/04/18 05:55:14;;;;;;;11.25;6.63;;;9.40;52.80;;;;;;5052122;28;20029;-30
2022/04/18 05:57:40;;;;;;;10.60;6.65;;;9.50;52.80;;;;;;5052346;28;20017;-31
2022/04/18 06:00:07;;;;;;;9.48;6.05;;;9.50;52.70;;;;;;5052117;28;20013;-30
2022/04/18 06:02:32;;;;;;;9.73;6.30;;;9.50;52.60;;;;;;5055727;28;20025;-41
2022/04/18 06:04:58;;;;;;;9.02;5.97;;;9.60;52.70;;;;;;5056100;28;20025;-30
2022/04/18 06:07:24;;;;;;;9.38;5.88;;;9.60;52.60;;;;;;5056292;28;20075;-31
2022/04/18 06:09:49;;;;;;;9.32;6.32;;;9.70;52.50;;;;;;5056362;28;20031;-29
2022/04/18 06:12:22;;;;;;;8.60;5.25;;;9.70;52.40;;;;;;5056068;28;20064;-34
2022/04/18 06:14:47;;;;;;;8.05;5.40;;;9.70;52.30;;;;;;5037911;28;20431;-36
2022/04/18 06:17:13;;;;;;;10.45;6.32;;;9.80;52.20;;;;;;5056164;28;20021;-30
2022/04/18 06:19:38;;;;;;;9.35;6.40;;;9.80;52.20;;;;;;5056224;28;20025;-31
2022/04/18 06:22:04;;;;;;;8.88;6.03;;;9.90;52.20;;;;;;5055815;28;20041;-31
2022/04/18 06:24:30;;;;;;;8.90;6.18;;;10.00;52.20;;;;;;5056051;28;20017;-33
2022/04/18 06:26:55;;;;;;;10.10;6.15;;;10.00;52.20;;;;;;5055869;28;20021;-32
2022/04/18 06:29:21;;;;;;;9.52;5.95;;;10.00;52.20;;;;;;5055961;28;20496;-30
2022/04/18 06:31:49;;;;;;;9.90;6.10;;;10.00;52.10;;;;;;5055792;28;20029;-32
2022/04/18 06:34:16;;;;;;;8.00;5.22;;;10.10;52.10;;;;;;5055828;28;20065;-30
2022/04/18 06:36:41;;;;;;;7.65;4.85;;;10.10;52.00;;;;;;5055641;28;20350;-30
2022/04/18 06:39:07;;;;;;;7.10;4.28;;;10.20;51.90;;;;;;5056184;28;20063;-30
2022/04/18 06:41:33;;;;;;;7.03;4.55;;;10.20;51.70;;;;;;5055457;28;20043;-32
2022/04/18 06:43:58;;;;;;;6.50;4.25;;;10.30;51.60;;;;;;5055479;28;20017;-35
2022/04/18 06:46:24;;;;;;;6.53;4.72;;;10.30;51.50;;;;;;5055667;28;20025;-35
2022/04/18 06:48:49;;;;;;;5.20;3.92;;;10.40;51.30;;;;;;5055533;28;20032;-30
2022/04/18 06:51:15;;;;;;;9.40;4.70;;;10.40;51.20;;;;;;5055458;28;20047;-30
2022/04/18 06:53:40;;;;;;;5.13;3.90;;;10.50;51.10;;;;;;5055401;28;20025;-33
2022/04/18 06:58:50;;;;;;;5.30;3.65;;;10.60;50.90;;;;;;5055291;28;20558;-31
2022/04/18 07:01:15;;;;;;;5.60;3.42;;;10.70;50.80;;;;;;5055417;28;20063;-47
2022/04/18 07:03:41;;;;;;;5.53;3.85;;;10.80;51.60;;;;;;5055098;28;20033;-45
2022/04/18 07:06:06;;;;;;;5.30;3.78;;;10.80;51.40;;;;;;5055337;28;20132;-46
2022/04/18 07:08:32;;;;;;;6.55;4.07;;;10.80;51.10;;;;;;5055122;28;20021;-46
2022/04/18 07:10:58;;;;;;;7.03;3.72;;;10.90;50.90;;;;;;5055035;28;20096;-46
2022/04/18 07:13:24;;;;;;;5.40;3.70;;;11.00;50.80;;;;;;5054481;28;20388;-45
2022/04/18 07:15:49;;;;;;;5.15;3.78;;;11.00;50.50;;;;;;5054996;28;20029;-46
2022/04/18 07:18:15;;;;;;;6.28;4.07;;;11.10;50.40;;;;;;5054838;28;20024;-45
2022/04/18 07:20:41;;;;;;;4.38;3.58;;;11.20;51.00;;;;;;5054758;28;20009;-48
2022/04/18 07:23:07;;;;;;;6.15;4.20;;;11.20;50.30;;;;;;5054542;28;20064;-46
2022/04/18 07:25:32;;;;;;;7.00;4.18;;;11.30;50.30;;;;;;5054644;28;20064;-45
2022/04/18 07:27:58;;;;;;;6.40;4.63;;;11.30;50.20;;;;;;5054596;28;20025;-46
2022/04/18 07:30:29;;;;;;;6.43;4.72;;;11.30;50.20;;;;;;5054697;28;20100;-46
2022/04/18 07:32:54;;;;;;;5.60;4.03;;;11.40;50.30;;;;;;5055140;28;20104;-46
2022/04/18 07:35:20;;;;;;;5.45;4.43;;;11.50;50.30;;;;;;5054618;28;20093;-45
2022/04/18 07:40:30;;;;;;;6.70;4.10;;;11.60;50.40;;;;;;5054713;28;20045;-46
2022/04/18 07:42:55;;;;;;;6.35;4.50;;;11.70;50.90;;;;;;5054670;28;20021;-47
2022/04/18 07:45:21;;;;;;;5.47;4.38;;;11.70;50.80;;;;;;5054660;28;20472;-46
2022/04/18 07:47:47;;;;;;;5.57;3.92;;;11.70;51.20;;;;;;5054640;28;20432;-46
2022/04/18 07:50:12;;;;;;;5.80;3.95;;;11.80;51.10;;;;;;5054265;28;20032;-47
2022/04/18 07:52:38;;;;;;;4.97;3.95;;;11.90;51.00;;;;;;5054337;28;20013;-46
2022/04/18 07:55:04;;;;;;;5.43;4.00;;;12.00;50.90;;;;;;5054282;28;20031;-47
2022/04/18 07:57:31;;;;;;;7.25;3.75;;;12.00;50.80;;;;;;5054224;28;20025;-47
2022/04/18 07:59:56;;;;;;;4.90;3.17;;;12.10;50.60;;;;;;5054710;28;20353;-46
2022/04/18 08:02:23;;;;;;;5.55;3.15;;;12.20;50.50;;;;;;5054456;28;20018;-47
2022/04/18 08:04:48;;;;;;;4.00;2.67;;;12.30;50.70;;;;;;5036329;28;20388;-46
2022/04/18 08:07:14;;;;;;;5.60;3.38;;;12.40;50.60;;;;;;5054109;28;20021;-47
2022/04/18 08:09:39;;;;;;;5.07;2.70;;;12.50;50.40;;;;;;5054135;28;20029;-47
2022/04/18 08:12:06;;;;;;;3.03;2.17;;;12.50;50.20;;;;;;5054132;28;20033;-46
2022/04/18 08:14:32;;;;;;;3.15;2.60;;;12.60;50.20;;;;;;5054388;28;20431;-46
2022/04/18 08:16:58;;;;;;;2.88;2.55;;;12.70;49.90;;;;;;5054038;28;20044;-46
2022/04/18 08:19:23;;;;;;;4.30;2.42;;;12.80;49.90;;;;;;5053660;28;20017;-47
2022/04/18 08:21:49;;;;;;;2.80;2.13;;;12.90;49.90;;;;;;5053673;28;20021;-47
2022/04/18 08:24:14;;;;;;;3.50;2.53;;;13.00;49.80;;;;;;5035298;28;20037;-47
2022/04/18 08:26:40;;;;;;;3.90;2.40;;;13.10;49.90;;;;;;5054071;28;20025;-47
2022/04/18 08:29:06;;;;;;;4.63;2.22;;;13.20;50.00;;;;;;5053871;28;20035;-47
2022/04/18 08:31:32;;;;;;;4.50;2.47;;;13.20;49.70;;;;;;5053748;28;20063;-46
2022/04/18 08:33:57;;;;;;;4.35;2.05;;;13.30;50.60;;;;;;5053660;28;20385;-47
2022/04/18 08:36:23;;;;;;;3.38;2.28;;;13.40;50.20;;;;;;5053906;28;20040;-47
2022/04/18 08:38:49;;;;;;;2.95;2.60;;;13.50;49.70;;;;;;5053718;28;20025;-47
2022/04/18 08:41:20;;;;;;;3.47;2.10;;;13.60;49.40;;;;;;5053405;28;20029;-46
2022/04/18 08:43:46;;;;;;;2.72;2.25;;;13.70;49.10;;;;;;5053722;28;20025;-47
2022/04/18 08:46:12;;;;;;;3.97;2.22;;;13.80;49.00;;;;;;5053371;28;20052;-47
2022/04/18 08:54:23;;;;;;;;;;;;;;;;;;;;;
2022/04/18 08:56:50;;;;;;;2.95;2.33;;;14.20;48.30;;;;;;5053600;28;20036;-48
2022/04/18 08:59:15;;;;;;;6.32;2.45;;;14.30;48.20;;;;;;5053326;28;20060;-45
2022/04/18 09:01:50;;;;;;;3.15;2.08;;;14.40;48.00;;;;;;5035119;28;20453;-32
2022/04/18 09:04:17;;;;;;;2.55;2.00;;;14.50;47.70;;;;;;5053000;28;20075;-31
2022/04/18 09:06:43;;;;;;;2.97;2.10;;;14.60;47.70;;;;;;5053072;28;20051;-39
2022/04/18 09:09:09;;;;;;;5.10;2.08;;;14.70;47.60;;;;;;5053150;28;20116;-40
2022/04/18 09:11:37;;;;;;;3.33;2.08;;;14.80;47.70;;;;;;5052860;28;20127;-39
2022/04/18 09:14:12;;;;;;;4.07;1.90;;;15.00;47.70;;;;;;5034890;28;20107;-36
2022/04/18 09:16:40;;;;;;;2.35;1.85;;;15.10;47.60;;;;;;5052753;28;20112;-36
2022/04/18 09:19:14;;;;;;;2.50;2.00;;;15.30;47.40;;;;;;5052671;28;20033;-40
2022/04/18 09:21:54;;;;;;;2.30;2.10;;;15.40;47.10;;;;;;5052456;28;20435;-36
2022/04/18 09:24:32;;;;;;;2.47;1.77;;;15.50;47.00;;;;;;5052796;28;20104;-39
2022/04/18 09:27:24;;;;;;;3.42;1.80;;;15.60;46.80;;;;;;5052519;28;20033;-40
2022/04/18 09:30:10;;;;;;;3.47;1.83;;;15.70;46.70;;;;;;5052644;28;20126;-39
2022/04/18 09:32:38;;;;;;;2.45;1.85;;;15.80;46.40;;;;;;5052754;28;20044;-39
2022/04/18 09:35:05;;;;;;;4.22;1.90;;;15.90;46.30;;;;;;5034803;28;20104;-42
2022/04/18 09:37:32;;;;;;;4.60;2.00;;;16.00;46.30;;;;;;5052202;28;20036;-40
2022/04/18 09:39:58;;;;;;;2.83;2.30;;;16.10;46.10;;;;;;5034505;28;20029;-37
2022/04/18 09:42:28;;;;;;;2.33;1.90;;;16.10;45.90;;;;;;5052455;28;20021;-35
2022/04/18 09:44:54;;;;;;;2.85;2.28;;;16.20;45.80;;;;;;5034419;28;20039;-38
2022/04/18 09:47:25;;;;;;;3.03;2.00;;;16.30;45.70;;;;;;5052296;28;20115;-36
2022/04/18 09:49:51;;;;;;;2.53;2.00;;;16.40;45.40;;;;;;5052472;28;20033;-36
2022/04/18 09:52:19;;;;;;;2.78;2.20;;;16.50;45.10;;;;;;5052405;28;20032;-38
2022/04/18 09:54:50;;;;;;;1.67;1.58;;;16.50;45.00;;;;;;5052479;28;20548;-39
2022/04/18 09:57:22;;;;;;;2.55;2.10;;;16.60;45.10;;;;;;5052088;28;20499;-33
2022/04/18 09:59:50;;;;;;;2.08;1.85;;;16.70;44.90;;;;;;5052115;28;20025;-34
2022/04/18 10:02:17;;;;;;;3.08;1.77;;;16.70;44.70;;;;;;5052041;28;20035;-35
2022/04/18 10:04:43;;;;;;;4.22;2.10;;;16.80;44.60;;;;;;5052159;28;20075;-34
2022/04/18 10:07:10;;;;;;;4.00;1.80;;;16.90;44.60;;;;;;5051866;28;20061;-37
2022/04/18 10:09:40;;;;;;;2.42;1.63;;;17.00;44.30;;;;;;5052163;28;20025;-35
2022/04/18 10:12:10;;;;;;;2.80;1.60;;;17.10;44.10;;;;;;5051612;28;20022;-39
2022/04/18 10:14:41;;;;;;;2.10;1.90;;;17.20;44.10;;;;;;5051881;28;20033;-39
2022/04/18 10:17:09;;;;;;;5.35;2.10;;;17.20;43.80;;;;;;5051873;28;20059;-39
2022/04/18 10:19:56;;;;;;;4.15;1.77;;;17.30;43.70;;;;;;5051960;28;20063;-34
2022/04/18 10:22:36;;;;;;;1.85;1.63;;;17.40;43.50;;;;;;5051512;28;20045;-39
2022/04/18 10:25:15;;;;;;;2.08;1.70;;;17.40;43.20;;;;;;5052009;28;20052;-39
2022/04/18 10:28:19;;;;;;;1.98;1.65;;;17.50;42.80;;;;;;5051881;28;20021;-38
2022/04/18 10:30:49;;;;;;;1.70;1.50;;;17.50;42.70;;;;;;4951835;29;20098;-38
2022/04/18 10:33:17;;;;;;;2.45;1.80;;;17.60;42.70;;;;;;5016604;28;20426;-37
2022/04/18 10:35:50;;;;;;;3.33;1.90;;;17.60;42.50;;;;;;5051868;28;20510;-35
2022/04/18 10:38:16;;;;;;;2.25;1.90;;;17.70;42.30;;;;;;5051708;28;20112;-37
2022/04/18 10:40:42;;;;;;;2.78;1.63;;;17.70;42.40;;;;;;5051833;28;20496;-35
2022/04/18 10:43:10;;;;;;;3.30;1.73;;;17.70;42.20;;;;;;5051633;28;20021;-37
2022/04/18 10:45:35;;;;;;;5.18;1.90;;;17.70;41.80;;;;;;5051549;28;20083;-39
2022/04/18 10:48:05;;;;;;;1.77;1.67;;;17.80;41.60;;;;;;5052555;28;20468;-38
2022/04/18 10:50:36;;;;;;;2.13;1.80;;;17.80;41.60;;;;;;5055021;28;20021;-40
2022/04/18 10:53:18;;;;;;;3.30;1.80;;;17.90;41.40;;;;;;5055184;28;20499;-36
2022/04/18 10:55:55;;;;;;;1.83;1.50;;;17.90;41.20;;;;;;5055171;28;20037;-36
2022/04/18 10:58:32;;;;;;;3.80;1.85;;;18.00;41.00;;;;;;5055004;28;20021;-36
2022/04/18 11:01:00;;;;;;;1.40;1.30;;;18.10;41.40;;;;;;5055389;28;20025;-36
2022/04/18 11:03:40;;;;;;;2.60;1.70;;;18.10;41.30;;;;;;5055254;28;20036;-34
2022/04/18 11:06:17;;;;;;;2.10;1.58;;;18.20;40.40;;;;;;5037152;28;20133;-35
2022/04/18 11:08:58;;;;;;;2.45;1.95;;;18.20;40.30;;;;;;5054989;28;20419;-38
2022/04/18 11:11:23;;;;;;;2.65;1.67;;;18.30;40.00;;;;;;5054958;28;20025;-38
2022/04/18 11:13:50;;;;;;;1.55;1.40;;;18.30;39.70;;;;;;5055079;28;20472;-35
2022/04/18 11:16:24;;;;;;;1.95;1.60;;;18.40;39.50;;;;;;5055077;28;20488;-39
2022/04/18 11:19:09;;;;;;;2.30;1.70;;;18.50;39.40;;;;;;5055015;28;20060;-36
2022/04/18 11:21:55;;;;;;;1.95;1.60;;;18.60;39.10;;;;;;5054592;28;20032;-35
2022/04/18 11:24:43;;;;;;;2.50;1.52;;;18.70;38.90;;;;;;5055179;28;20036;-38
2022/04/18 11:27:20;;;;;;;1.83;1.30;;;18.80;38.50;;;;;;5055028;28;20389;-36
2022/04/18 11:29:57;;;;;;;4.57;1.52;;;18.80;38.40;;;;;;5054927;28;20055;-36
2022/04/18 11:32:29;;;;;;;1.95;1.65;;;18.90;38.30;;;;;;5054569;28;20021;-36
2022/04/18 11:34:57;;;;;;;2.22;1.52;;;19.00;38.30;;;;;;5055035;28;20444;-37
2022/04/18 11:37:27;;;;;;;2.70;2.00;;;19.10;38.30;;;;;;5054630;28;20025;-39
2022/04/18 11:39:58;;;;;;;2.50;1.70;;;19.10;38.30;;;;;;5054392;28;20039;-35
2022/04/18 11:42:25;;;;;;;2.47;1.80;;;19.20;38.20;;;;;;5036386;28;20017;-39
2022/04/18 11:44:52;;;;;;;2.17;1.92;;;19.30;38.20;;;;;;5054711;28;20511;-34
2022/04/18 11:47:22;;;;;;;2.92;2.10;;;19.30;38.30;;;;;;5054433;28;20017;-37
2022/04/18 11:49:52;;;;;;;2.60;2.10;;;19.30;38.20;;;;;;5054347;28;20040;-40
2022/04/18 11:52:25;;;;;;;2.50;1.80;;;19.30;38.30;;;;;;5054360;28;20031;-36
2022/04/18 11:55:00;;;;;;;;;;;19.40;38.30;;;;;;5054685;28;20028;-38
2022/04/18 11:57:26;;;;;;;2.75;2.22;;;19.40;38.30;;;;;;5054078;28;19996;-36
2022/04/18 11:59:52;;;;;;;2.28;2.03;;;19.40;38.10;;;;;;5054168;28;20047;-38
2022/04/18 12:07:56;;;;;;;2.13;1.92;;;19.50;38.10;;;;;;5054094;28;20071;-36
2022/04/18 12:10:25;;;;;;;2.47;2.20;;;19.50;38.10;;;;;;5053960;28;20461;-37
2022/04/18 12:12:52;;;;;;;2.58;2.00;;;19.60;38.00;;;;;;5053838;28;20410;-40
2022/04/18 12:15:22;;;;;;;2.38;2.13;;;19.60;37.80;;;;;;5036062;28;20021;-36
2022/04/18 12:17:48;;;;;;;3.22;2.10;;;19.70;37.60;;;;;;5053878;28;20079;-39
2022/04/18 12:20:30;;;;;;;3.42;2.38;;;19.70;37.60;;;;;;5053785;28;20108;-34
2022/04/18 12:23:02;;;;;;;2.58;2.10;;;19.80;37.30;;;;;;5053479;28;20120;-35
2022/04/18 12:25:32;;;;;;;4.15;2.25;;;19.80;37.30;;;;;;5053869;28;20531;-37
2022/04/18 12:28:00;;;;;;;2.45;2.10;;;19.90;37.30;;;;;;5053546;28;20029;-37
2022/04/18 12:30:27;;;;;;;3.13;2.50;;;20.00;37.20;;;;;;5053392;28;20021;-34
2022/04/18 12:32:54;;;;;;;2.35;2.05;;;20.00;37.20;;;;;;5053777;28;20021;-37
2022/04/18 12:35:40;;;;;;;2.20;2.00;;;20.10;37.10;;;;;;5053607;28;20021;-35
2022/04/18 12:38:08;;;;;;;4.63;2.10;;;20.10;36.90;;;;;;5053630;28;20139;-37
2022/04/18 12:40:36;;;;;;;3.17;2.10;;;20.20;36.80;;;;;;5053765;28;20025;-36
2022/04/18 12:43:10;;;;;;;2.33;1.95;;;20.20;36.40;;;;;;5054089;28;20017;-36
2022/04/18 12:46:13;;;;;;;2.05;1.75;;;20.30;36.60;;;;;;5053920;28;20099;-39
2022/04/18 12:48:38;;;;;;;2.40;1.95;;;20.40;36.50;;;;;;5032541;28;20029;-39
2022/04/18 12:51:07;;;;;;;3.28;1.90;;;20.50;36.40;;;;;;5053392;28;20043;-40
2022/04/18 12:53:55;;;;;;;3.40;2.17;;;20.50;36.30;;;;;;5053237;28;20021;-40
2022/04/18 12:56:23;;;;;;;4.40;1.70;;;20.60;36.00;;;;;;5052947;28;20112;-37
2022/04/18 12:58:52;;;;;;;1.98;1.77;;;20.60;36.10;;;;;;5053016;28;20032;-38
2022/04/18 13:01:30;;;;;;;2.30;1.80;;;20.70;36.00;;;;;;5053003;28;20056;-40
2022/04/18 13:03:56;;;;;;;2.03;1.92;;;20.80;35.60;;;;;;5053053;28;20109;-38
2022/04/18 13:06:27;;;;;;;1.73;1.63;;;20.80;35.60;;;;;;5052894;28;20032;-37
2022/04/18 13:09:19;;;;;;;3.83;1.80;;;20.90;35.60;;;;;;5052741;28;20052;-36
2022/04/18 13:11:45;;;;;;;2.40;1.75;;;21.00;35.50;;;;;;5047345;28;20521;-36
2022/04/18 13:14:13;;;;;;;1.67;1.58;;;21.00;35.40;;;;;;5052592;28;20031;-37
2022/04/18 13:16:40;;;;;;;2.20;1.70;;;21.10;35.70;;;;;;5052433;28;20029;-39